FMNM/MJN METAR and TAF weather

Enter ICAO airport designator
Station Type Date Time Source
FMNM METAR 2021/05/14 07:00 UTC NOAA

FMNM 140700Z 17009KT 120V220 9999 FEW023 31/18 Q1016 NOSIG


Station Type Date Time Source
FMNM Decoded METAR 2021/05/14 07:00 UTC NOAA

Majunga, Madagascar (FMNM) 15-40S 046-21E 18M
May 14, 2021 - 03:00 AM EDT / 2021.05.14 0700 UTC
Wind: from the S (170 degrees) at 10 MPH (9 KT) (direction variable):0
Visibility: greater than 7 mile(s):0
Sky conditions: mostly clear
Temperature: 87 F (31 C)
Dew Point: 64 F (18 C)
Relative Humidity: 45%
Pressure (altimeter): 30.00 in. Hg (1016 hPa)
ob: FMNM 140700Z 17009KT 120V220 9999 FEW023 31/18 Q1016 NOSIG
cycle: 7

Station Type Date Time Source
FMNM TAF 2021/05/14 06:03 UTC NOAA

TAF FMNM 140500Z 1406/1506 14010KT 9999 FEW023

Example: see airport list